^^
Datos históricos de la estación: Murcia-Puente Tocinos
Diario Informe para Abril 9, 2019 Unidades:  Ingés    Métrico   Ambas
Diario Semanal Mensual Anual
  Máxima: Mínima: Promedio:
Temperatura: 94.1 °F 72.9 °F 82 °F
Punto de rocio: 68.4 °F 46 °F 55.6 °F
Humedad: 84% 21% 45%
Velocidad viento: 14.5mph 1.8mph 5.7mph
Racha viento: 28mph - -
Viento- - SSO
Presión: 29.9 in 29.8 in -
Precipitación: 0 in    
 
 
Tabla de datos para Abril 9, 2019
Hora Temperatura Punto de rocio Presión Viento Velocidad viento Racha viento Humedad Intensidad lluvia(por hora) Nubes
00:04 73.9 °F 68.4 °F 29.8 in NNE 4.3 mph 7 mph 83% 0 in
00:09 73.8 °F 68.4 °F 29.8 in NNE 4.3 mph 7.4 mph 83% 0 in
00:14 73.8 °F 68.4 °F 29.8 in North 4.3 mph 7 mph 83% 0 in
00:19 73.8 °F 68.4 °F 29.8 in NNO 3.5 mph 5 mph 83% 0 in
00:24 73.8 °F 68.4 °F 29.8 in NNO 1.8 mph 4.6 mph 82.9% 0 in
00:29 73.8 °F 68 °F 29.8 in NNO 2 mph 5 mph 82.1% 0 in
00:34 73.8 °F 67.8 °F 29.8 in NNO 2.4 mph 5.2 mph 82% 0 in
00:39 73.8 °F 67.8 °F 29.8 in NO 2.5 mph 5.2 mph 82% 0 in
00:44 73.8 °F 67.8 °F 29.8 in NO 2.9 mph 5.9 mph 82% 0 in
00:49 73.8 °F 67.8 °F 29.8 in ONO 3 mph 6.9 mph 82% 0 in
00:54 73.6 °F 67.8 °F 29.8 in ONO 3.1 mph 7 mph 82.3% 0 in
00:59 73.6 °F 68 °F 29.8 in ONO 3 mph 5 mph 83% 0 in
01:04 73.4 °F 67.8 °F 29.8 in ONO 2.9 mph 4.6 mph 83% 0 in
01:09 73.4 °F 68 °F 29.8 in ONO 2.7 mph 5 mph 83.1% 0 in
01:14 73.2 °F 68.2 °F 29.8 in Oeste 2.4 mph 6.2 mph 84% 0 in
01:19 73.2 °F 68.2 °F 29.8 in Oeste 3 mph 8.1 mph 84% 0 in
01:24 73.2 °F 68.2 °F 29.8 in Oeste 4.3 mph 8.5 mph 84% 0 in
01:29 73.2 °F 68.2 °F 29.8 in Oeste 4.6 mph 9 mph 84% 0 in
01:34 73.2 °F 68.2 °F 29.8 in ONO 5.2 mph 8 mph 84% 0 in
01:39 73.2 °F 68.2 °F 29.8 in Oeste 4.8 mph 7 mph 84% 0 in
01:44 73.4 °F 68.2 °F 29.8 in ONO 4 mph 6 mph 84% 0 in
01:49 73.4 °F 68.4 °F 29.8 in Oeste 3.4 mph 5 mph 84% 0 in
01:54 73.4 °F 68 °F 29.8 in OSO 2 mph 4.6 mph 83.5% 0 in
01:59 73.6 °F 68 °F 29.8 in OSO 1.9 mph 5 mph 83% 0 in
02:04 73.6 °F 68.2 °F 29.8 in OSO 1.8 mph 5.2 mph 83% 0 in
02:09 73.8 °F 68 °F 29.8 in OSO 1.9 mph 5.4 mph 82.4% 0 in
02:14 73.8 °F 67.8 °F 29.8 in OSO 2 mph 6 mph 82% 0 in
02:19 73.8 °F 67.8 °F 29.8 in Oeste 2.3 mph 5 mph 82% 0 in
02:24 73.8 °F 67.8 °F 29.8 in Oeste 2.9 mph 5 mph 82% 0 in
02:29 73.8 °F 68.2 °F 29.8 in OSO 2.5 mph 5 mph 82.9% 0 in
02:34 73.8 °F 68.4 °F 29.8 in OSO 1.8 mph 5.4 mph 83% 0 in
02:39 73.8 °F 68.4 °F 29.8 in OSO 2.1 mph 6 mph 83% 0 in
02:44 73.8 °F 68.4 °F 29.8 in OSO 2.9 mph 6.4 mph 83% 0 in
02:49 73.8 °F 68.4 °F 29.8 in SO 3.1 mph 7 mph 83% 0 in
02:54 73.8 °F 68.2 °F 29.8 in SSO 3.6 mph 8.1 mph 82.9% 0 in
02:59 73.6 °F 67.5 °F 29.8 in Sur 3.9 mph 8.1 mph 81.6% 0 in
03:04 73 °F 67.3 °F 29.8 in Sur 4.3 mph 8 mph 82% 0 in
03:09 72.9 °F 67.3 °F 29.8 in SSO 4.2 mph 7 mph 82.7% 0 in
03:14 73 °F 67.6 °F 29.8 in OSO 4 mph 5.9 mph 83% 0 in
03:19 73.2 °F 67.6 °F 29.8 in OSO 3.9 mph 8.1 mph 83% 0 in
03:24 73.2 °F 67.8 °F 29.8 in OSO 3.6 mph 8 mph 83% 0 in
03:29 73.4 °F 67.6 °F 29.8 in OSO 3.6 mph 6 mph 82.1% 0 in
03:34 73.6 °F 67.6 °F 29.8 in OSO 3.6 mph 6.9 mph 82% 0 in
03:39 73.6 °F 67.6 °F 29.8 in OSO 3.6 mph 7 mph 82% 0 in
03:44 73.6 °F 67.6 °F 29.8 in OSO 3.6 mph 6 mph 82% 0 in
03:49 73.6 °F 67.6 °F 29.8 in OSO 3.4 mph 6 mph 82% 0 in
03:54 73.4 °F 67.3 °F 29.8 in OSO 3.1 mph 5.8 mph 81.4% 0 in
03:59 73.2 °F 67.1 °F 29.8 in OSO 3 mph 6 mph 81% 0 in
04:04 73.2 °F 66.9 °F 29.8 in OSO 2.9 mph 5 mph 81% 0 in
04:09 73.2 °F 66.9 °F 29.8 in OSO 2.7 mph 5 mph 81% 0 in
04:14 73.4 °F 66.7 °F 29.8 in OSO 2.4 mph 6.9 mph 79.7% 0 in
04:19 73.6 °F 66.4 °F 29.8 in SO 2.8 mph 7 mph 78.1% 0 in
04:24 73.8 °F 65.8 °F 29.8 in SO 3.6 mph 6 mph 76.4% 0 in
04:29 73.9 °F 65.5 °F 29.8 in OSO 3.6 mph 6.9 mph 75% 0 in
04:34 73.9 °F 65.1 °F 29.8 in SSO 3.6 mph 7.4 mph 73.9% 0 in
04:39 74.1 °F 64.9 °F 29.8 in SO 3.9 mph 7 mph 73% 0 in
04:44 74.5 °F 64.9 °F 29.8 in SO 4.7 mph 9.2 mph 72.1% 0 in
04:49 74.5 °F 64.6 °F 29.8 in SO 4.9 mph 9.2 mph 71.3% 0 in
04:54 74.5 °F 64.6 °F 29.8 in SO 5.4 mph 9.2 mph 71% 0 in
04:59 74.5 °F 64.2 °F 29.8 in SO 5.3 mph 9 mph 70.2% 0 in
05:04 74.5 °F 63.5 °F 29.8 in SO 5.2 mph 8.1 mph 68.8% 0 in
05:09 74.7 °F 63 °F 29.8 in SO 5.4 mph 11.8 mph 67% 0 in
05:14 74.8 °F 62.1 °F 29.8 in SO 5.9 mph 12 mph 64.6% 0 in
05:19 74.8 °F 61.7 °F 29.8 in SO 6 mph 9.2 mph 63.5% 0 in
05:24 74.8 °F 61.2 °F 29.8 in SO 6.2 mph 9.2 mph 62.3% 0 in
05:29 74.8 °F 60.4 °F 29.8 in SO 6 mph 9.2 mph 60.8% 0 in
05:34 74.8 °F 60.1 °F 29.8 in SO 5.4 mph 9 mph 60.1% 0 in
05:39 74.8 °F 59.7 °F 29.8 in SO 5.2 mph 8.1 mph 59.4% 0 in
05:44 74.8 °F 59.2 °F 29.8 in SO 4.7 mph 9.2 mph 58.1% 0 in
05:49 74.8 °F 58.6 °F 29.8 in SO 4.8 mph 9.2 mph 57% 0 in
05:54 74.8 °F 58.1 °F 29.8 in SO 5.2 mph 9.2 mph 56% 0 in
05:59 75 °F 57.7 °F 29.8 in SO 5.3 mph 10.7 mph 55.1% 0 in
06:04 75 °F 57.2 °F 29.8 in SSO 5.4 mph 11.5 mph 54% 0 in
06:09 75 °F 56.7 °F 29.8 in SSO 5.7 mph 12 mph 52.6% 0 in
06:14 75.4 °F 56.3 °F 29.8 in SSO 6.4 mph 12 mph 51.7% 0 in
06:19 75.4 °F 56.1 °F 29.8 in SSO 6.3 mph 10 mph 51.3% 0 in
06:24 75.2 °F 55.8 °F 29.8 in SSO 6.2 mph 9.2 mph 51% 0 in
06:29 75.2 °F 55.6 °F 29.8 in SSO 6.2 mph 11.5 mph 50.6% 0 in
06:34 75 °F 55.2 °F 29.8 in SSO 6.2 mph 12 mph 50% 0 in
06:39 75 °F 55 °F 29.8 in SSO 6.3 mph 10 mph 50% 0 in
06:44 75 °F 55 °F 29.8 in SSO 6.4 mph 11.5 mph 49.9% 0 in
06:49 75 °F 55 °F 29.8 in SSO 6.4 mph 12 mph 49.8% 0 in
06:54 74.8 °F 54.5 °F 29.8 in SSO 6.4 mph 10.7 mph 49.3% 0 in
06:59 74.8 °F 54.3 °F 29.8 in SSO 6.4 mph 11 mph 49% 0 in
07:04 74.8 °F 54.3 °F 29.8 in SSO 6.4 mph 10.4 mph 49% 0 in
07:09 74.8 °F 54 °F 29.8 in SSO 6.3 mph 10.7 mph 48.3% 0 in
07:14 75 °F 54 °F 29.8 in SSO 6.2 mph 11 mph 48% 0 in
07:19 75 °F 54 °F 29.8 in SSO 6.4 mph 10 mph 48% 0 in
07:24 75.2 °F 53.8 °F 29.8 in SSO 6.9 mph 10.4 mph 47.4% 0 in
07:29 75.4 °F 53.6 °F 29.8 in SO 6.6 mph 9.2 mph 47% 0 in
07:34 75.4 °F 53.8 °F 29.8 in SSO 5.9 mph 9 mph 47% 0 in
07:39 75.6 °F 53.8 °F 29.8 in SO 5.5 mph 8.5 mph 47% 0 in
07:44 75.6 °F 54 °F 29.8 in Oeste 4.7 mph 9 mph 47.1% 0 in
07:49 75.6 °F 56.1 °F 29.8 in North 4.2 mph 8 mph 51.1% 0 in
07:54 75.2 °F 57.2 °F 29.8 in NNE 3.1 mph 5 mph 53.7% 0 in
07:59 74.7 °F 57.9 °F 29.8 in NNE 3 mph 5.8 mph 55.9% 0 in
08:04 73.9 °F 57.9 °F 29.8 in NNE 2.9 mph 6 mph 57.4% 0 in
08:09 73.8 °F 57.9 °F 29.8 in NE 2.7 mph 5 mph 57.7% 0 in
08:14 73.9 °F 57.7 °F 29.8 in Este 2.4 mph 4.7 mph 57% 0 in
08:19 73.9 °F 57.6 °F 29.9 in Este 2.6 mph 5.9 mph 56.5% 0 in
08:24 74.1 °F 57.9 °F 29.9 in ESE 3.1 mph 6 mph 57.2% 0 in
08:29 74.3 °F 57 °F 29.9 in SSE 3.1 mph 6.2 mph 54.8% 0 in
08:34 74.8 °F 55.6 °F 29.9 in SSO 3.1 mph 8.1 mph 51.1% 0 in
08:39 75.2 °F 54.7 °F 29.9 in SO 3.6 mph 8 mph 49% 0 in
08:44 75.6 °F 54.7 °F 29.9 in OSO 4.7 mph 8.1 mph 48.1% 0 in
08:49 75.9 °F 54.9 °F 29.9 in Oeste 4.6 mph 8 mph 48% 0 in
08:54 76.3 °F 55 °F 29.9 in Oeste 4.3 mph 6.4 mph 48% 0 in
08:59 76.5 °F 55.2 °F 29.9 in Oeste 4 mph 7 mph 47.8% 0 in
09:04 76.6 °F 54.9 °F 29.9 in OSO 3.6 mph 6.2 mph 47% 0 in
09:09 77 °F 55.4 °F 29.9 in OSO 3.2 mph 6 mph 47.4% 0 in
09:14 77.5 °F 55.2 °F 29.9 in OSO 2.4 mph 6 mph 46.2% 0 in
09:19 77.9 °F 54.9 °F 29.9 in Oeste 2.6 mph 6.9 mph 45.2% 0 in
09:24 78.3 °F 54.9 °F 29.9 in OSO 3.1 mph 7.4 mph 44.7% 0 in
09:29 78.6 °F 54.7 °F 29.9 in OSO 3.5 mph 9.2 mph 43.7% 0 in
09:34 79 °F 54.1 °F 29.9 in OSO 4.3 mph 9.7 mph 42.5% 0 in
09:39 79.2 °F 54.1 °F 29.9 in Oeste 4.8 mph 10.4 mph 42% 0 in
09:44 79.5 °F 54.5 °F 29.9 in Oeste 5.9 mph 10 mph 42.1% 0 in
09:49 79.9 °F 54.1 °F 29.9 in OSO 5.7 mph 11.8 mph 41% 0 in
09:54 80.1 °F 54.1 °F 29.9 in Oeste 5.4 mph 12 mph 40.9% 0 in
09:59 80.2 °F 54 °F 29.9 in OSO 5.8 mph 15 mph 40.3% 0 in
10:04 80.4 °F 53.4 °F 29.9 in OSO 6.4 mph 15 mph 39.4% 0 in
10:09 80.6 °F 53.4 °F 29.9 in OSO 6.8 mph 14 mph 39% 0 in
10:14 81 °F 53.6 °F 29.9 in OSO 7.6 mph 14 mph 39% 0 in
10:19 81.1 °F 53.4 °F 29.9 in Oeste 7.2 mph 11.8 mph 38.4% 0 in
10:24 81.5 °F 53.2 °F 29.9 in Oeste 6.4 mph 12 mph 37.8% 0 in
10:29 81.9 °F 52.7 °F 29.9 in OSO 6 mph 13 mph 36.7% 0 in
10:34 82.2 °F 52 °F 29.9 in Oeste 5.2 mph 15 mph 35.3% 0 in
10:39 82.6 °F 51.8 °F 29.9 in Oeste 6 mph 15 mph 34.6% 0 in
10:44 82.9 °F 51.6 °F 29.9 in Oeste 7.6 mph 14 mph 34% 0 in
10:49 83.3 °F 51.8 °F 29.9 in Oeste 7.4 mph 13.7 mph 33.8% 0 in
10:54 83.5 °F 51.3 °F 29.9 in OSO 6.9 mph 14 mph 33% 0 in
10:59 83.5 °F 50.9 °F 29.9 in Oeste 7.5 mph 16.1 mph 32.5% 0 in
11:04 83.5 °F 50.5 °F 29.9 in ONO 8.7 mph 16.1 mph 32.1% 0 in
11:09 83.7 °F 50.5 °F 29.9 in Oeste 8.6 mph 16 mph 32% 0 in
11:14 83.7 °F 50.7 °F 29.9 in OSO 8.5 mph 14.7 mph 32% 0 in
11:19 83.8 °F 50.5 °F 29.9 in Oeste 8.4 mph 15 mph 31.6% 0 in
11:24 84 °F 50.5 °F 29.9 in Oeste 8.1 mph 16.1 mph 31.5% 0 in
11:29 84.4 °F 50.5 °F 29.9 in ONO 7.7 mph 16 mph 31.1% 0 in
11:34 84.7 °F 50.5 °F 29.9 in ONO 6.9 mph 14.5 mph 30.7% 0 in
11:39 85.1 °F 50.2 °F 29.9 in ONO 6.7 mph 15 mph 30% 0 in
11:44 84.9 °F 50.2 °F 29.9 in ONO 6.4 mph 13 mph 30.2% 0 in
11:49 85.3 °F 49.6 °F 29.9 in ONO 6.3 mph 12 mph 29.4% 0 in
11:54 85.5 °F 49.5 °F 29.9 in Oeste 6.2 mph 13 mph 28.9% 0 in
11:59 85.8 °F 49.3 °F 29.9 in ONO 6.2 mph 13 mph 28.4% 0 in
12:04 86.4 °F 49.1 °F 29.9 in Oeste 6.2 mph 12.7 mph 27.7% 0 in
12:09 86.4 °F 49.3 °F 29.8 in Oeste 5.9 mph 13 mph 27.8% 0 in
12:14 86.7 °F 49.3 °F 29.8 in OSO 5.2 mph 10.7 mph 27.7% 0 in
12:19 86.5 °F 49.5 °F 29.8 in Oeste 5.4 mph 11.8 mph 27.9% 0 in
12:24 86.4 °F 49.5 °F 29.8 in SO 5.9 mph 12 mph 28% 0 in
12:29 86.7 °F 49.3 °F 29.8 in SO 5.7 mph 9 mph 27.7% 0 in
12:34 87.1 °F 48.9 °F 29.8 in SO 5.2 mph 13.7 mph 27% 0 in
12:39 86.9 °F 48 °F 29.8 in SO 5.6 mph 14 mph 26.1% 0 in
12:44 87.1 °F 48.6 °F 29.8 in SSO 6.4 mph 14 mph 26.5% 0 in
12:49 87.4 °F 49.1 °F 29.8 in SO 6.6 mph 13 mph 26.7% 0 in
12:54 87.4 °F 48.2 °F 29.8 in SSO 6.9 mph 12.7 mph 25.9% 0 in
12:59 87.6 °F 47.5 °F 29.8 in SSO 6.5 mph 13 mph 25% 0 in
13:04 88.2 °F 46.9 °F 29.8 in SO 5.9 mph 11 mph 24.1% 0 in
13:09 88.3 °F 46.2 °F 29.8 in SO 6.2 mph 14 mph 23.4% 0 in
13:14 88.3 °F 46.4 °F 29.8 in SO 6.9 mph 14 mph 23.5% 0 in
13:19 88.2 °F 46 °F 29.8 in SO 6.7 mph 14 mph 23.3% 0 in
13:24 88.3 °F 46.8 °F 29.8 in SO 6.4 mph 11.5 mph 23.7% 0 in
13:29 88.7 °F 46.8 °F 29.8 in Sur 6.1 mph 12.7 mph 23.5% 0 in
13:34 89.1 °F 46.6 °F 29.8 in OSO 5.4 mph 13 mph 23.1% 0 in
13:39 89.2 °F 46.9 °F 29.8 in Oeste 5.3 mph 12 mph 23.3% 0 in
13:44 89.6 °F 47.3 °F 29.8 in SSE 5.2 mph 9.2 mph 23.4% 0 in
13:49 90 °F 47.1 °F 29.8 in SO 5 mph 10.2 mph 23% 0 in
13:54 89.6 °F 47.1 °F 29.8 in Este 4.7 mph 10 mph 23.2% 0 in
13:59 89.4 °F 47.7 °F 29.8 in ENE 4.7 mph 9.2 mph 23.9% 0 in
14:04 89.6 °F 47.8 °F 29.8 in SO 4.7 mph 10.4 mph 23.8% 0 in
14:09 90 °F 47.8 °F 29.8 in NO 4.7 mph 10 mph 23.6% 0 in
14:14 90.1 °F 47.7 °F 29.8 in ONO 4.7 mph 9 mph 23.3% 0 in
14:19 90.3 °F 47.5 °F 29.8 in OSO 4.7 mph 11.5 mph 23% 0 in
14:24 90.7 °F 47.7 °F 29.8 in SO 4.7 mph 12 mph 22.9% 0 in
14:29 90.7 °F 47.5 °F 29.8 in OSO 4.5 mph 9.2 mph 22.7% 0 in
14:34 90.7 °F 47.7 °F 29.8 in Oeste 4 mph 9.2 mph 23% 0 in
14:39 90.7 °F 47.8 °F 29.8 in Oeste 4.4 mph 9.2 mph 23% 0 in
14:44 90.9 °F 48 °F 29.8 in Oeste 5.2 mph 11.8 mph 23% 0 in
14:49 91 °F 48 °F 29.8 in SSO 5.3 mph 12 mph 23% 0 in
14:54 91 °F 48 °F 29.8 in SSO 5.4 mph 10.7 mph 23% 0 in
14:59 90.9 °F 47.8 °F 29.8 in SO 5.4 mph 11.5 mph 23% 0 in
15:04 90.7 °F 47.8 °F 29.8 in SSE 5.4 mph 12 mph 23.1% 0 in
15:09 90.9 °F 48 °F 29.8 in Sur 5.3 mph 11.8 mph 23% 0 in
15:14 91 °F 48.2 °F 29.8 in SSE 5.2 mph 12 mph 23% 0 in
15:19 91 °F 47.5 °F 29.8 in SE 5.6 mph 10.4 mph 22.5% 0 in
15:24 91 °F 47.8 °F 29.8 in ENE 6.4 mph 10.4 mph 22.9% 0 in
15:29 91.2 °F 47.7 °F 29.8 in Oeste 6 mph 9.2 mph 22.4% 0 in
15:34 91.6 °F 48.2 °F 29.8 in SSE 5.2 mph 9.2 mph 22.7% 0 in
15:39 91.9 °F 47.7 °F 29.8 in NO 4.9 mph 11.5 mph 22% 0 in
15:44 92.1 °F 47.8 °F 29.8 in OSO 4.3 mph 12 mph 22% 0 in
15:49 92.3 °F 48 °F 29.8 in OSO 4.4 mph 12 mph 22% 0 in
15:54 92.7 °F 48.4 °F 29.8 in OSO 4.7 mph 8.7 mph 22% 0 in
15:59 92.7 °F 48.2 °F 29.8 in Sur 4.7 mph 9.2 mph 22% 0 in
16:04 92.5 °F 48.2 °F 29.8 in OSO 4.7 mph 9.2 mph 22% 0 in
16:09 92.7 °F 47.8 °F 29.8 in Oeste 4.3 mph 9 mph 21.7% 0 in
16:14 93.2 °F 48.6 °F 29.8 in NE 3.6 mph 7 mph 22% 0 in
16:19 93.7 °F 48 °F 29.8 in NO 3.3 mph 8.1 mph 21.1% 0 in
16:24 94.1 °F 48.2 °F 29.8 in OSO 2.4 mph 8 mph 21% 0 in
16:29 93.9 °F 48.2 °F 29.8 in NE 2.8 mph 8.1 mph 21% 0 in
16:34 93.9 °F 48.2 °F 29.8 in ENE 3.6 mph 8 mph 21.1% 0 in
16:39 93.9 °F 48 °F 29.8 in North 3.6 mph 6.2 mph 21% 0 in
16:44 93.7 °F 49.8 °F 29.8 in ENE 3.6 mph 12.7 mph 22.6% 0 in
16:49 92.8 °F 53.6 °F 29.8 in ESE 4.4 mph 18.1 mph 26.7% 0 in
16:54 92.7 °F 53.6 °F 29.8 in ESE 6.2 mph 22.3 mph 26.8% 0 in
16:59 92.3 °F 53.8 °F 29.8 in ESE 8 mph 22 mph 27.4% 0 in
17:04 91.8 °F 53.8 °F 29.8 in SE 11.4 mph 19.7 mph 27.7% 0 in
17:09 91 °F 53.8 °F 29.8 in SE 11.9 mph 23 mph 28.2% 0 in
17:14 90.7 °F 54 °F 29.8 in SSE 13 mph 23 mph 28.9% 0 in
17:19 90.7 °F 54.1 °F 29.8 in SE 13.2 mph 23 mph 29% 0 in
17:24 90.3 °F 53.8 °F 29.8 in SSE 13.7 mph 23 mph 29% 0 in
17:29 90.3 °F 53.8 °F 29.8 in SE 14 mph 25.3 mph 29% 0 in
17:34 90 °F 53.4 °F 29.8 in SE 14.5 mph 28 mph 29% 0 in
17:39 90.3 °F 53.8 °F 29.8 in SSE 14.2 mph 28 mph 29% 0 in
17:44 90.7 °F 54 °F 29.8 in SE 13.5 mph 23 mph 28.9% 0 in
17:49 90.7 °F 54.1 °F 29.8 in SSE 13.2 mph 23 mph 29% 0 in
17:54 91 °F 53.8 °F 29.8 in SSE 12.5 mph 21 mph 28.4% 0 in
17:59 90.9 °F 54 °F 29.8 in SE 12.2 mph 22.3 mph 28.8% 0 in
18:04 90.9 °F 54.1 °F 29.8 in SE 11.8 mph 22 mph 29% 0 in
18:09 90.7 °F 54.1 °F 29.8 in SE 11.7 mph 21.9 mph 29% 0 in
18:14 90.3 °F 53.8 °F 29.8 in SE 11.4 mph 22 mph 29% 0 in
18:19 90 °F 54.3 °F 29.8 in SE 11.7 mph 21 mph 29.9% 0 in
18:24 90 °F 54.3 °F 29.8 in ESE 12.3 mph 20.8 mph 30% 0 in
18:29 90 °F 54.3 °F 29.8 in ESE 12 mph 21 mph 30% 0 in
18:34 89.8 °F 54.7 °F 29.8 in SE 11.4 mph 18.4 mph 30.5% 0 in
18:39 89.8 °F 55 °F 29.8 in SE 11.4 mph 20.7 mph 31% 0 in
18:44 90 °F 55 °F 29.8 in SE 11.2 mph 21 mph 30.8% 0 in
18:49 89.8 °F 54.7 °F 29.8 in SE 10.7 mph 20.7 mph 30.5% 0 in
18:54 89.2 °F 54.5 °F 29.8 in SE 9.7 mph 22.3 mph 31% 0 in
18:59 88.7 °F 54.3 °F 29.8 in SE 11.1 mph 22 mph 31.2% 0 in
19:04 88.9 °F 54.5 °F 29.8 in SE 13.5 mph 19 mph 31.1% 0 in
19:09 89.1 °F 54.5 °F 29.8 in ESE 12.4 mph 19.6 mph 31% 0 in
19:14 88.9 °F 54.3 °F 29.8 in SE 10 mph 20 mph 31% 0 in
19:19 88.9 °F 54.3 °F 29.8 in SE 10.3 mph 17.5 mph 31% 0 in
19:24 88.5 °F 54 °F 29.8 in SE 10.7 mph 17.3 mph 31% 0 in
19:29 88.3 °F 54 °F 29.8 in SE 10.7 mph 18.5 mph 31% 0 in
19:34 88.3 °F 54 °F 29.8 in SE 10.7 mph 19 mph 31% 0 in
19:39 88.2 °F 53.8 °F 29.8 in SE 10.6 mph 19 mph 31% 0 in
19:44 88.2 °F 53.8 °F 29.8 in SE 10.2 mph 18 mph 31% 0 in
19:49 88 °F 53.4 °F 29.8 in SE 10.2 mph 17.3 mph 31% 0 in
19:54 87.8 °F 53.4 °F 29.8 in SE 10.2 mph 17.3 mph 31% 0 in
19:59 87.6 °F 53.2 °F 29.8 in SE 10.2 mph 17.3 mph 31.1% 0 in
20:04 87.4 °F 53.8 °F 29.8 in SE 10.2 mph 17 mph 31.8% 0 in
20:09 87.6 °F 53.8 °F 29.8 in ESE 9.3 mph 12 mph 31.6% 0 in
20:14 87.6 °F 53.4 °F 29.8 in ESE 7.4 mph 12.7 mph 31.2% 0 in
20:19 87.4 °F 53.2 °F 29.8 in SE 7.6 mph 15.2 mph 31.1% 0 in
20:24 87.3 °F 53.1 °F 29.8 in SE 8.1 mph 15 mph 31.2% 0 in
20:29 86.9 °F 53.4 °F 29.8 in SE 8.4 mph 16.1 mph 31.9% 0 in
20:34 86.5 °F 53.2 °F 29.8 in SE 9.2 mph 16 mph 32% 0 in
20:39 86.5 °F 53.2 °F 29.8 in SE 8.8 mph 14 mph 32% 0 in
20:44 86.5 °F 53.1 °F 29.8 in ESE 8.1 mph 12.7 mph 32% 0 in
20:49 86.4 °F 53.1 °F 29.8 in SE 7.7 mph 13 mph 32% 0 in
20:54 86.2 °F 52.9 °F 29.8 in ESE 6.9 mph 13 mph 32% 0 in
20:59 86 °F 52.7 °F 29.8 in ESE 6.6 mph 12 mph 32% 0 in
21:04 85.8 °F 52.5 °F 29.8 in SE 6.2 mph 10 mph 32% 0 in
21:09 85.6 °F 52.3 °F 29.8 in SE 5.8 mph 8.7 mph 32% 0 in
21:14 85.5 °F 52.3 °F 29.8 in SE 5.2 mph 9.2 mph 32% 0 in
21:19 85.5 °F 52.2 °F 29.8 in ESE 5 mph 9 mph 32% 0 in
21:24 85.3 °F 52.2 °F 29.8 in ESE 4.7 mph 6 mph 32.1% 0 in
21:29 85.3 °F 52 °F 29.8 in ESE 4.3 mph 6.2 mph 32% 0 in
21:34 85.1 °F 52.2 °F 29.8 in SE 3.6 mph 6.2 mph 32.3% 0 in
21:39 84.9 °F 52 °F 29.8 in ESE 3.4 mph 7.4 mph 32.2% 0 in
21:44 84.7 °F 52.3 °F 29.8 in Este 3.1 mph 7 mph 33% 0 in
21:49 84.6 °F 52.3 °F 29.8 in ESE 3.3 mph 6 mph 33% 0 in
21:54 84.6 °F 52.3 °F 29.8 in ESE 3.6 mph 6 mph 33% 0 in
21:59 84.6 °F 52 °F 29.8 in ESE 3.6 mph 6.2 mph 32.8% 0 in
22:04 84.4 °F 52 °F 29.8 in ESE 3.6 mph 6.2 mph 32.7% 0 in
22:09 84.2 °F 52 °F 29.8 in ESE 3.7 mph 6 mph 33% 0 in
22:14 84 °F 51.8 °F 29.8 in ESE 4 mph 6 mph 33% 0 in
22:19 83.8 °F 51.8 °F 29.9 in Este 3.7 mph 5 mph 33% 0 in
22:24 83.7 °F 52 °F 29.9 in ENE 2.9 mph 5 mph 33.7% 0 in
22:29 83.5 °F 52.2 °F 29.9 in ENE 2.6 mph 5 mph 34% 0 in
22:34 83.3 °F 52 °F 29.9 in Este 2 mph 6.9 mph 34% 0 in
22:39 82.9 °F 51.8 °F 29.9 in ESE 2.5 mph 7 mph 34% 0 in
22:44 82.9 °F 52.2 °F 29.9 in ESE 3.6 mph 7 mph 34.5% 0 in
22:49 82.9 °F 52.3 °F 29.9 in SE 3.2 mph 5 mph 34.8% 0 in
22:54 82.8 °F 52.3 °F 29.9 in ESE 2.4 mph 6.9 mph 35% 0 in
22:59 82.8 °F 52.2 °F 29.9 in ESE 2.7 mph 7 mph 35% 0 in
23:04 82.6 °F 52.2 °F 29.9 in SE 3.1 mph 6 mph 35% 0 in
23:09 82.4 °F 52 °F 29.9 in SE 3 mph 7.6 mph 35% 0 in
23:14 82 °F 51.8 °F 29.9 in ESE 2.9 mph 8.1 mph 35% 0 in
23:19 81.9 °F 52.2 °F 29.9 in Este 3.1 mph 8 mph 35.9% 0 in
23:24 81.7 °F 52.2 °F 29.9 in ESE 3.6 mph 5.9 mph 36% 0 in
23:29 81.7 °F 52 °F 29.9 in ESE 3.4 mph 6 mph 36% 0 in
23:34 81.3 °F 51.8 °F 29.9 in ESE 3.1 mph 5.8 mph 36% 0 in
23:39 81.3 °F 51.8 °F 29.9 in ESE 3.1 mph 6 mph 36.1% 0 in
23:44 81.3 °F 52.3 °F 29.9 in ESE 3.1 mph 6 mph 36.6% 0 in
23:49 81.3 °F 52.2 °F 29.9 in Este 2.9 mph 6.2 mph 36.6% 0 in
23:54 81 °F 52.3 °F 29.9 in ENE 2.4 mph 6 mph 37% 0 in
23:59 80.8 °F 52.2 °F 29.9 in NE 2.7 mph 5.9 mph 37.2% 0 in
Murcia-Puente Tocinos, España
Compliments of Weather Underground - 3 mb

La estación de MeteoMurcia.com, publica sus datos en los siguientes proyectos:

Weather Underground PWS IMURCIAP2 Meteoclimatic www.awekas.at

W3Counter
Web Analytics